Benguela Stream — PENR — position and weather

sailwx.info

Track history (hours):
 
Tides and Currents Weather Stations Pressure Air Temp Water Temp Dewpoint Dewpoint Depression Visibility Wind Speed Wind Dir Waves Ship Positions

Benguela Stream

Last reported at 2014-Jul-30 12:00 UTC. Time now 2014-Jul-30 15:17 UTC.
Position N 21°24' W 055°12'.

Length 150 m; beam 13 m.

Type: Ship. MMSI: 244455000.

Wind from 070 at 10 knots

Waves 0.5 meters (2 feet), 3 second period

Barometer 1020.6 mb
Air temperature 28.0 ° C
Visibility: greater than 10.8 NM
Dewpoint 22.1 ° C
Water temperature 27.4 ° C

Date/timePositionNaut miles runAvg speedWind from/ knotsBaromVisibWave heightAir tempDewpointWater temp
2014-Jul-30 12:00N 21°24' W 055°12'11118.5 070 / 101020.610.8 0.528.022.127.4
2014-Jul-30 06:00N 22°48' W 053°54'11018.3 090 / 101021.1 5.4 0.527.024.126.4
2014-Jul-30 00:00N 24°06' W 052°30'11318.9 1023.010.8 27.026.728.0
2014-Jul-29 18:00N 25°30' W 051°06'32718.2 090 / 151022.8 5.4 0.529.022.428.0
2014-Jul-29 00:00N 29°24' W 046°48'21918.3 1025.410.8 26.521.328.0
2014-Jul-28 12:00N 31°54' W 043°42'22418.6 999 / 21024.910.8 27.019.327.0
2014-Jul-28 00:00N 34°24' W 040°24'65918.3 1024.010.8 24.019.425.2
2014-Jul-26 12:00N 41°06' W 029°24'22618.8 040 / 101010.510.8 0.522.519.421.2
2014-Jul-26 00:00N 43°06' W 025°06'21117.6 1012.310.8 20.019.220.0
2014-Jul-25 12:00N 44°54' W 020°54'43818.3 160 / 201015.810.8 19.417.519.4
2014-Jul-24 12:00N 48°00' W 011°18'22618.8 010 / 151019.9 5.4 0.519.018.219.0
2014-Jul-24 00:00N 49°12' W 005°54'20617.5 010 / 111017.0 5.4 0.520.019.221.0
2014-Jul-23 12:14N 49°43' W 000°41'1420.6
2014-Jul-23 11:33N 49°36' W 000°21'1716.8
2014-Jul-23 10:33N 49°30' E 000°02'5 4.6
2014-Jul-23 09:32N 49°28' E 000°09'0 0.0
2014-Jul-23 08:32N 49°28' E 000°09'0 0.0
2014-Jul-23 07:32N 49°28' E 000°09'0 0.0
2014-Jul-23 06:32N 49°28' E 000°09'0 0.0
2014-Jul-23 05:32N 49°28' E 000°09'0 0.0
2014-Jul-23 04:32N 49°28' E 000°09'0 0.0
2014-Jul-23 03:32N 49°28' E 000°09'0 0.0
2014-Jul-23 02:32N 49°28' E 000°09'0 0.0
2014-Jul-23 01:32N 49°28' E 000°09'0 0.0
2014-Jul-23 00:32N 49°28' E 000°09'0 0.0
2014-Jul-22 23:32N 49°28' E 000°09'1 1.1
2014-Jul-22 22:33N 49°28' E 000°08'9 8.7
2014-Jul-22 21:33N 49°31' W 000°05'1615.8
2014-Jul-22 20:32N 49°44' W 000°19'4420.0
2014-Jul-22 18:21N 50°23' W 000°50'1519.0
2014-Jul-22 17:33N 50°37' W 000°58'1010.3
2014-Jul-22 16:33N 50°46' W 001°05'2 2.3
2014-Jul-22 15:32N 50°49' W 001°05'0 0.0
2014-Jul-22 14:33N 50°49' W 001°05'0 0.0
2014-Jul-22 13:32N 50°49' W 001°05'0 0.0
2014-Jul-22 12:32N 50°49' W 001°05'0 0.0
2014-Jul-22 11:33N 50°49' W 001°05'0 0.0
2014-Jul-22 10:32N 50°49' W 001°05'0 0.0
2014-Jul-22 09:32N 50°49' W 001°05'0 0.0
2014-Jul-22 08:33N 50°49' W 001°05'0 0.0
2014-Jul-22 07:33N 50°49' W 001°05'0 0.0
2014-Jul-22 06:33N 50°49' W 001°05'0 0.0
2014-Jul-22 05:33N 50°49' W 001°05'0 0.0
2014-Jul-22 04:32N 50°49' W 001°05'0 0.0
2014-Jul-22 03:32N 50°49' W 001°05'0 0.0
2014-Jul-22 02:32N 50°49' W 001°05'0 0.0
2014-Jul-22 01:32N 50°49' W 001°05'0 0.0
2014-Jul-22 00:33N 50°49' W 001°05'0 0.0
2014-Jul-21 23:32N 50°49' W 001°05'0 0.0
2014-Jul-21 22:33N 50°49' W 001°05'0 0.0
2014-Jul-21 21:32N 50°49' W 001°05'0 0.0
2014-Jul-21 20:32N 50°49' W 001°05'0 0.0
2014-Jul-21 20:17N 50°49' W 001°05'0 0.0
2014-Jul-21 19:32N 50°49' W 001°05'0 0.0
2014-Jul-21 18:33N 50°49' W 001°05'0 0.0
2014-Jul-21 17:32N 50°49' W 001°05'0 0.0
2014-Jul-21 16:32N 50°49' W 001°05'0 0.0
2014-Jul-21 15:32N 50°49' W 001°05'0 0.0
2014-Jul-21 14:33N 50°49' W 001°05'0 0.0
2014-Jul-21 13:33N 50°49' W 001°05'0 0.0
2014-Jul-21 12:32N 50°49' W 001°05'0 0.0
2014-Jul-21 11:33N 50°49' W 001°05'0 0.0
2014-Jul-21 10:33N 50°49' W 001°05'0 0.0
2014-Jul-21 09:32N 50°49' W 001°05'0 0.0
2014-Jul-21 08:32N 50°49' W 001°05'0 0.0
2014-Jul-21 07:33N 50°49' W 001°05'0 0.0
2014-Jul-21 06:33N 50°49' W 001°05'0 0.0
2014-Jul-21 05:32N 50°49' W 001°05'0 0.0
2014-Jul-21 04:33N 50°49' W 001°05'0 0.0
2014-Jul-21 03:33N 50°49' W 001°05'0 0.0
2014-Jul-21 02:32N 50°49' W 001°05'0 0.0
2014-Jul-21 01:33N 50°49' W 001°05'0 0.0
2014-Jul-21 00:33N 50°49' W 001°05'0 0.0
2014-Jul-20 23:33N 50°49' W 001°05'0 0.0
2014-Jul-20 22:33N 50°49' W 001°05'0 0.0
2014-Jul-20 21:32N 50°49' W 001°05'3 3.6
2014-Jul-20 20:34N 50°45' W 001°05'1010.1
2014-Jul-20 19:34N 50°36' W 000°59'1515.0
2014-Jul-20 18:33N 50°27' W 001°19'1918.5
2014-Jul-20 17:33N 50°22' W 001°47'  
Track history (hours):
 
Tides and Currents Weather Stations Pressure Air Temp Water Temp Dewpoint Dewpoint Depression Visibility Wind Speed Wind Dir Waves Ship Positions

Benguela Stream

Last reported at 2014-Jul-30 12:00 UTC. Time now 2014-Jul-30 15:17 UTC.
Position N 21°24' W 055°12'.

Length 150 m; beam 13 m.

Type: Ship. MMSI: 244455000.

Wind from 070 at 10 knots

Waves 0.5 meters (2 feet), 3 second period

Barometer 1020.6 mb
Air temperature 28.0 ° C
Visibility: greater than 10.8 NM
Dewpoint 22.1 ° C
Water temperature 27.4 ° C

Date/timePositionNaut miles runAvg speedWind from/ knotsBaromVisibWave heightAir tempDewpointWater temp
2014-Jul-30 12:00N 21°24' W 055°12'11118.5 070 / 101020.610.8 0.528.022.127.4
2014-Jul-30 06:00N 22°48' W 053°54'11018.3 090 / 101021.1 5.4 0.527.024.126.4
2014-Jul-30 00:00N 24°06' W 052°30'11318.9 1023.010.8 27.026.728.0
2014-Jul-29 18:00N 25°30' W 051°06'32718.2 090 / 151022.8 5.4 0.529.022.428.0
2014-Jul-29 00:00N 29°24' W 046°48'21918.3 1025.410.8 26.521.328.0
2014-Jul-28 12:00N 31°54' W 043°42'22418.6 999 / 21024.910.8 27.019.327.0
2014-Jul-28 00:00N 34°24' W 040°24'65918.3 1024.010.8 24.019.425.2
2014-Jul-26 12:00N 41°06' W 029°24'22618.8 040 / 101010.510.8 0.522.519.421.2
2014-Jul-26 00:00N 43°06' W 025°06'21117.6 1012.310.8 20.019.220.0
2014-Jul-25 12:00N 44°54' W 020°54'43818.3 160 / 201015.810.8 19.417.519.4
2014-Jul-24 12:00N 48°00' W 011°18'22618.8 010 / 151019.9 5.4 0.519.018.219.0
2014-Jul-24 00:00N 49°12' W 005°54'20617.5 010 / 111017.0 5.4 0.520.019.221.0
2014-Jul-23 12:14N 49°43' W 000°41'1420.6
2014-Jul-23 11:33N 49°36' W 000°21'1716.8
2014-Jul-23 10:33N 49°30' E 000°02'5 4.6
2014-Jul-23 09:32N 49°28' E 000°09'0 0.0
2014-Jul-23 08:32N 49°28' E 000°09'0 0.0
2014-Jul-23 07:32N 49°28' E 000°09'0 0.0
2014-Jul-23 06:32N 49°28' E 000°09'0 0.0
2014-Jul-23 05:32N 49°28' E 000°09'0 0.0
2014-Jul-23 04:32N 49°28' E 000°09'0 0.0
2014-Jul-23 03:32N 49°28' E 000°09'0 0.0
2014-Jul-23 02:32N 49°28' E 000°09'0 0.0
2014-Jul-23 01:32N 49°28' E 000°09'0 0.0
2014-Jul-23 00:32N 49°28' E 000°09'0 0.0
2014-Jul-22 23:32N 49°28' E 000°09'1 1.1
2014-Jul-22 22:33N 49°28' E 000°08'9 8.7
2014-Jul-22 21:33N 49°31' W 000°05'1615.8
2014-Jul-22 20:32N 49°44' W 000°19'4420.0
2014-Jul-22 18:21N 50°23' W 000°50'1519.0
2014-Jul-22 17:33N 50°37' W 000°58'1010.3
2014-Jul-22 16:33N 50°46' W 001°05'2 2.3
2014-Jul-22 15:32N 50°49' W 001°05'0 0.0
2014-Jul-22 14:33N 50°49' W 001°05'0 0.0
2014-Jul-22 13:32N 50°49' W 001°05'0 0.0
2014-Jul-22 12:32N 50°49' W 001°05'0 0.0
2014-Jul-22 11:33N 50°49' W 001°05'0 0.0
2014-Jul-22 10:32N 50°49' W 001°05'0 0.0
2014-Jul-22 09:32N 50°49' W 001°05'0 0.0
2014-Jul-22 08:33N 50°49' W 001°05'0 0.0
2014-Jul-22 07:33N 50°49' W 001°05'0 0.0
2014-Jul-22 06:33N 50°49' W 001°05'0 0.0
2014-Jul-22 05:33N 50°49' W 001°05'0 0.0
2014-Jul-22 04:32N 50°49' W 001°05'0 0.0
2014-Jul-22 03:32N 50°49' W 001°05'0 0.0
2014-Jul-22 02:32N 50°49' W 001°05'0 0.0
2014-Jul-22 01:32N 50°49' W 001°05'0 0.0
2014-Jul-22 00:33N 50°49' W 001°05'0 0.0
2014-Jul-21 23:32N 50°49' W 001°05'0 0.0
2014-Jul-21 22:33N 50°49' W 001°05'0 0.0
2014-Jul-21 21:32N 50°49' W 001°05'0 0.0
2014-Jul-21 20:32N 50°49' W 001°05'0 0.0
2014-Jul-21 20:17N 50°49' W 001°05'0 0.0
2014-Jul-21 19:32N 50°49' W 001°05'0 0.0
2014-Jul-21 18:33N 50°49' W 001°05'0 0.0
2014-Jul-21 17:32N 50°49' W 001°05'0 0.0
2014-Jul-21 16:32N 50°49' W 001°05'0 0.0
2014-Jul-21 15:32N 50°49' W 001°05'0 0.0
2014-Jul-21 14:33N 50°49' W 001°05'0 0.0
2014-Jul-21 13:33N 50°49' W 001°05'0 0.0
2014-Jul-21 12:32N 50°49' W 001°05'0 0.0
2014-Jul-21 11:33N 50°49' W 001°05'0 0.0
2014-Jul-21 10:33N 50°49' W 001°05'0 0.0
2014-Jul-21 09:32N 50°49' W 001°05'0 0.0
2014-Jul-21 08:32N 50°49' W 001°05'0 0.0
2014-Jul-21 07:33N 50°49' W 001°05'0 0.0
2014-Jul-21 06:33N 50°49' W 001°05'0 0.0
2014-Jul-21 05:32N 50°49' W 001°05'0 0.0
2014-Jul-21 04:33N 50°49' W 001°05'0 0.0
2014-Jul-21 03:33N 50°49' W 001°05'0 0.0
2014-Jul-21 02:32N 50°49' W 001°05'0 0.0
2014-Jul-21 01:33N 50°49' W 001°05'0 0.0
2014-Jul-21 00:33N 50°49' W 001°05'0 0.0
2014-Jul-20 23:33N 50°49' W 001°05'0 0.0
2014-Jul-20 22:33N 50°49' W 001°05'0 0.0
2014-Jul-20 21:32N 50°49' W 001°05'3 3.6
2014-Jul-20 20:34N 50°45' W 001°05'1010.1
2014-Jul-20 19:34N 50°36' W 000°59'1515.0
2014-Jul-20 18:33N 50°27' W 001°19'1918.5
2014-Jul-20 17:33N 50°22' W 001°47'  

Dump ship's entire track history